createdAt,value
2022-11-14T00:00:18.867Z,94.65
2022-11-14T00:01:18.872Z,94.65
2022-11-14T00:02:18.898Z,94.54
2022-11-14T00:03:18.840Z,94.54
2022-11-14T00:04:18.809Z,94.54
2022-11-14T00:05:18.810Z,94.48
2022-11-14T00:06:18.802Z,94.38
2022-11-14T00:07:18.831Z,94.38
2022-11-14T00:08:18.763Z,94.38
2022-11-14T00:09:18.749Z,94.38
2022-11-14T00:10:18.728Z,94.48
2022-11-14T00:11:18.749Z,94.48
2022-11-14T00:12:18.699Z,94.48
2022-11-14T00:13:18.700Z,94.59
2022-11-14T00:14:18.676Z,94.69
2022-11-14T00:15:18.671Z,94.90
2022-11-14T00:16:18.659Z,95.00
2022-11-14T00:17:18.643Z,95.31
2022-11-14T00:18:18.627Z,95.52
2022-11-14T00:19:18.609Z,95.62
2022-11-14T00:20:18.595Z,95.73
2022-11-14T00:21:18.599Z,95.83
2022-11-14T00:22:18.569Z,95.83
2022-11-14T00:23:18.559Z,95.73
2022-11-14T00:24:18.541Z,95.73
2022-11-14T00:25:18.529Z,95.62
2022-11-14T00:26:18.537Z,95.62
2022-11-14T00:27:18.498Z,95.83
2022-11-14T00:28:18.500Z,95.83
2022-11-14T00:29:18.480Z,95.83
2022-11-14T00:30:18.480Z,95.83
2022-11-14T00:31:18.475Z,95.73
2022-11-14T00:32:18.429Z,95.83
2022-11-14T00:33:20.588Z,95.83
2022-11-14T00:34:18.401Z,95.83
2022-11-14T00:35:18.398Z,95.94
2022-11-14T00:36:18.401Z,95.83
2022-11-14T00:37:18.378Z,95.83
2022-11-14T00:38:18.353Z,95.73
2022-11-14T00:39:18.349Z,95.73
2022-11-14T00:40:18.319Z,95.73
2022-11-14T00:41:18.329Z,95.73
2022-11-14T00:42:18.303Z,95.73
2022-11-14T00:43:18.290Z,95.62
2022-11-14T00:44:18.283Z,95.62
2022-11-14T00:45:18.269Z,95.62
2022-11-14T00:46:18.269Z,95.62
2022-11-14T00:47:18.239Z,95.52
2022-11-14T00:48:18.210Z,95.62
2022-11-14T00:49:18.212Z,95.52
2022-11-14T00:50:18.198Z,95.62
2022-11-14T00:51:18.200Z,95.73
2022-11-14T00:52:18.169Z,95.83
2022-11-14T00:53:18.150Z,95.73
2022-11-14T00:54:18.141Z,95.83
2022-11-14T00:55:18.128Z,95.73
2022-11-14T00:56:18.129Z,95.52
2022-11-14T00:57:18.107Z,95.62
2022-11-14T00:58:18.087Z,95.52
2022-11-14T00:59:18.071Z,95.42
2022-11-14T01:00:18.060Z,95.31
2022-11-14T01:01:18.114Z,95.42
2022-11-14T01:02:18.039Z,95.31
2022-11-14T01:03:18.033Z,95.10
2022-11-14T01:04:18.006Z,94.90
2022-11-14T01:05:17.996Z,94.84
2022-11-14T01:06:17.991Z,94.73
2022-11-14T01:07:17.969Z,94.63
2022-11-14T01:08:17.956Z,94.63
2022-11-14T01:09:18.003Z,94.53
2022-11-14T01:10:17.947Z,94.57
2022-11-14T01:11:17.930Z,94.57
2022-11-14T01:12:17.922Z,94.57
2022-11-14T01:13:17.933Z,94.68
2022-11-14T01:14:17.872Z,94.78
2022-11-14T01:15:17.860Z,94.78
2022-11-14T01:16:17.858Z,94.98
2022-11-14T01:17:17.840Z,95.09
2022-11-14T01:18:17.832Z,95.09
2022-11-14T01:19:17.811Z,95.19
2022-11-14T01:20:17.791Z,95.29
2022-11-14T01:21:17.812Z,95.29
2022-11-14T01:22:17.764Z,95.50
2022-11-14T01:23:17.759Z,95.61
2022-11-14T01:24:17.742Z,95.81
2022-11-14T01:25:17.731Z,96.12
2022-11-14T01:26:17.710Z,96.23
2022-11-14T01:27:17.694Z,96.23
2022-11-14T01:28:17.683Z,96.33
2022-11-14T01:29:17.670Z,96.33
2022-11-14T01:30:17.658Z,96.33
2022-11-14T01:31:17.668Z,96.23
2022-11-14T01:32:17.620Z,96.12
2022-11-14T01:33:17.620Z,96.23
2022-11-14T01:34:17.601Z,96.23
2022-11-14T01:35:17.588Z,96.12
2022-11-14T01:36:17.600Z,96.12
2022-11-14T01:37:17.577Z,96.12
2022-11-14T01:38:17.549Z,96.23
2022-11-14T01:39:17.539Z,96.33
2022-11-14T01:40:17.524Z,96.33
2022-11-14T01:41:17.535Z,96.44
2022-11-14T01:42:17.802Z,96.54
2022-11-14T01:43:17.493Z,96.44
2022-11-14T01:44:17.460Z,96.54
2022-11-14T01:45:17.452Z,96.44
2022-11-14T01:46:17.455Z,96.44
2022-11-14T01:47:17.423Z,96.44
2022-11-14T01:48:17.412Z,96.44
2022-11-14T01:49:17.403Z,96.48
2022-11-14T01:50:17.381Z,96.37
2022-11-14T01:51:17.401Z,96.48
2022-11-14T01:52:17.351Z,96.48
2022-11-14T01:53:17.360Z,96.37
2022-11-14T01:54:17.340Z,96.37
2022-11-14T01:55:17.329Z,96.37
2022-11-14T01:56:17.322Z,96.37
2022-11-14T01:57:17.300Z,96.37
2022-11-14T01:58:17.276Z,96.37
2022-11-14T01:59:17.273Z,96.48
2022-11-14T02:00:17.255Z,96.37
2022-11-14T02:01:17.378Z,96.37
2022-11-14T02:02:17.223Z,96.37
2022-11-14T02:03:17.213Z,96.37
2022-11-14T02:04:17.203Z,96.37
2022-11-14T02:05:17.207Z,96.37
2022-11-14T02:06:17.190Z,96.58
2022-11-14T02:07:17.227Z,96.48
2022-11-14T02:08:17.154Z,96.48
2022-11-14T02:09:17.133Z,96.48
2022-11-14T02:10:17.125Z,96.48
2022-11-14T02:11:17.122Z,96.48
2022-11-14T02:12:17.093Z,96.48
2022-11-14T02:13:17.087Z,96.37
2022-11-14T02:14:17.064Z,96.31
2022-11-14T02:15:17.053Z,96.31
2022-11-14T02:16:17.148Z,96.21
2022-11-14T02:17:32.425Z,96.21
2022-11-14T02:18:18.011Z,96.11
2022-11-14T02:19:17.012Z,96.11
2022-11-14T02:20:16.982Z,96.01
2022-11-14T02:21:17.943Z,96.05
2022-11-14T02:22:16.952Z,96.05
2022-11-14T02:23:16.944Z,96.05
2022-11-14T02:24:16.923Z,96.05
2022-11-14T02:25:16.932Z,96.05
2022-11-14T02:26:16.925Z,96.15
2022-11-14T02:27:16.892Z,96.05
2022-11-14T02:28:16.884Z,96.05
2022-11-14T02:29:16.866Z,96.15
2022-11-14T02:30:16.846Z,96.26
2022-11-14T02:31:16.857Z,96.26
2022-11-14T02:32:16.829Z,96.15
2022-11-14T02:33:16.831Z,96.15
2022-11-14T02:34:16.851Z,96.15
2022-11-14T02:35:16.786Z,96.05
2022-11-14T02:36:16.786Z,96.09
2022-11-14T02:37:16.766Z,96.09
2022-11-14T02:38:16.745Z,96.09
2022-11-14T02:39:16.736Z,95.99
2022-11-14T02:40:16.716Z,96.09
2022-11-14T02:41:16.715Z,95.89
2022-11-14T02:42:16.689Z,95.99
2022-11-14T02:43:16.677Z,95.99
2022-11-14T02:44:16.667Z,95.99
2022-11-14T02:45:16.665Z,95.99
2022-11-14T02:46:16.656Z,96.09
2022-11-14T02:47:16.625Z,96.20
2022-11-14T02:48:26.350Z,96.20
2022-11-14T02:49:16.589Z,96.20
2022-11-14T02:50:16.607Z,96.09
2022-11-14T02:51:16.559Z,96.09
2022-11-14T02:52:16.550Z,96.09
2022-11-14T02:53:16.546Z,96.09
2022-11-14T02:54:16.521Z,96.09
2022-11-14T02:55:16.529Z,96.09
2022-11-14T02:56:16.503Z,95.99
2022-11-14T02:57:16.479Z,95.99
2022-11-14T02:58:16.469Z,96.14
2022-11-14T02:59:16.450Z,96.14
2022-11-14T03:00:16.459Z,96.14
2022-11-14T03:01:21.217Z,96.24
2022-11-14T03:02:17.418Z,96.24
2022-11-14T03:03:16.398Z,96.24
2022-11-14T03:04:16.390Z,96.24
2022-11-14T03:05:16.395Z,96.24
2022-11-14T03:06:16.368Z,96.24
2022-11-14T03:07:16.411Z,96.24
2022-11-14T03:08:16.333Z,96.24
2022-11-14T03:09:16.326Z,96.24
2022-11-14T03:10:16.333Z,96.24
2022-11-14T03:11:16.279Z,96.24
2022-11-14T03:12:16.282Z,96.24
2022-11-14T03:13:16.263Z,96.14
2022-11-14T03:14:16.250Z,96.24
2022-11-14T03:15:16.256Z,96.24
2022-11-14T03:16:16.222Z,96.34
2022-11-14T03:17:16.210Z,96.34
2022-11-14T03:18:16.197Z,96.45
2022-11-14T03:19:16.204Z,96.66
2022-11-14T03:20:16.194Z,96.76
2022-11-14T03:21:16.164Z,96.86
2022-11-14T03:22:16.142Z,96.97
2022-11-14T03:23:16.121Z,97.03
2022-11-14T03:24:16.121Z,97.07
2022-11-14T03:25:16.110Z,97.24
2022-11-14T03:26:16.089Z,97.24
2022-11-14T03:27:16.070Z,97.03
2022-11-14T03:28:16.071Z,97.13
2022-11-14T03:29:16.041Z,97.28
2022-11-14T03:30:16.059Z,97.13
2022-11-14T03:31:16.012Z,97.13
2022-11-14T03:32:16.012Z,97.24
2022-11-14T03:33:15.990Z,97.13
2022-11-14T03:34:15.982Z,97.13
2022-11-14T03:35:16.017Z,97.13
2022-11-14T03:36:15.951Z,97.13
2022-11-14T03:37:15.938Z,97.03
2022-11-14T03:38:15.930Z,97.13
2022-11-14T03:39:15.912Z,97.17
2022-11-14T03:40:15.914Z,97.13
2022-11-14T03:41:15.880Z,97.03
2022-11-14T03:42:15.886Z,97.13
2022-11-14T03:43:15.864Z,97.13
2022-11-14T03:44:15.842Z,97.13
2022-11-14T03:45:15.841Z,97.13
2022-11-14T03:46:15.817Z,97.03
2022-11-14T03:47:15.801Z,97.13
2022-11-14T03:48:15.804Z,97.03
2022-11-14T03:49:15.780Z,97.03
2022-11-14T03:50:15.772Z,97.03
2022-11-14T03:51:15.749Z,97.03
2022-11-14T03:52:15.739Z,97.03
2022-11-14T03:53:15.712Z,97.03
2022-11-14T03:54:15.702Z,97.03
2022-11-14T03:55:15.714Z,97.03
2022-11-14T03:56:15.695Z,97.03
2022-11-14T03:57:15.662Z,96.92
2022-11-14T03:58:15.662Z,96.92
2022-11-14T03:59:15.655Z,96.98
2022-11-14T04:00:15.629Z,96.92
2022-11-14T04:01:15.647Z,96.78
2022-11-14T04:02:15.593Z,96.67
2022-11-14T04:03:15.571Z,96.67
2022-11-14T04:04:15.592Z,96.67
2022-11-14T04:05:15.551Z,96.57
2022-11-14T04:06:15.541Z,96.47
2022-11-14T04:07:15.599Z,96.36
2022-11-14T04:08:15.513Z,96.47
2022-11-14T04:09:15.517Z,96.36
2022-11-14T04:10:15.482Z,96.15
2022-11-14T04:11:15.473Z,96.15
2022-11-14T04:12:16.009Z,95.95
2022-11-14T04:13:15.505Z,95.74
2022-11-14T04:14:15.443Z,95.64
2022-11-14T04:15:15.413Z,95.64
2022-11-14T04:16:15.412Z,95.53
2022-11-14T04:17:15.383Z,95.43
2022-11-14T04:18:15.372Z,95.32
2022-11-14T04:19:15.384Z,95.22
2022-11-14T04:20:15.349Z,95.12
2022-11-14T04:21:15.333Z,95.12
2022-11-14T04:22:15.323Z,95.01
2022-11-14T04:23:15.303Z,94.91
2022-11-14T04:24:15.321Z,94.91
2022-11-14T04:25:15.275Z,94.81
2022-11-14T04:26:15.273Z,94.70
2022-11-14T04:27:15.243Z,94.49
2022-11-14T04:28:15.253Z,94.29
2022-11-14T04:29:15.242Z,94.08
2022-11-14T04:30:15.225Z,93.83
2022-11-14T04:31:15.195Z,93.73
2022-11-14T04:32:15.194Z,93.62
2022-11-14T04:33:15.174Z,93.41
2022-11-14T04:34:15.185Z,93.41
2022-11-14T04:35:15.133Z,93.41
2022-11-14T04:36:15.157Z,93.21
2022-11-14T04:37:15.114Z,93.21
2022-11-14T04:38:15.103Z,93.10
2022-11-14T04:39:15.105Z,92.90
2022-11-14T04:40:15.074Z,92.80
2022-11-14T04:41:15.063Z,92.49
2022-11-14T04:42:15.056Z,92.28
2022-11-14T04:43:15.034Z,92.03
2022-11-14T04:44:15.043Z,91.97
2022-11-14T04:45:15.102Z,91.51
2022-11-14T04:46:15.002Z,91.30
2022-11-14T04:47:14.982Z,90.89
2022-11-14T04:48:14.975Z,90.68
2022-11-14T04:49:14.973Z,90.47
2022-11-14T04:50:14.945Z,90.06
2022-11-14T04:51:14.925Z,90.06
2022-11-14T04:52:14.915Z,90.16
2022-11-14T04:53:14.898Z,90.12
2022-11-14T04:54:14.904Z,90.23
2022-11-14T04:55:14.880Z,90.23
2022-11-14T04:56:14.864Z,90.12
2022-11-14T04:57:14.844Z,90.02
2022-11-14T04:58:14.837Z,89.71
2022-11-14T04:59:20.504Z,89.71
2022-11-14T05:00:15.806Z,89.61
2022-11-14T05:01:14.859Z,89.61
2022-11-14T05:02:14.782Z,89.71
2022-11-14T05:03:14.764Z,89.81
2022-11-14T05:04:14.774Z,89.61
2022-11-14T05:05:14.747Z,89.81
2022-11-14T05:06:14.725Z,89.87
2022-11-14T05:07:14.792Z,89.77
2022-11-14T05:08:14.707Z,89.67
2022-11-14T05:09:14.694Z,89.67
2022-11-14T05:10:14.665Z,89.36
2022-11-14T05:11:14.656Z,89.01
2022-11-14T05:12:14.647Z,88.70
2022-11-14T05:13:14.645Z,88.49
2022-11-14T05:14:14.634Z,88.18
2022-11-14T05:15:14.606Z,87.87
2022-11-14T05:16:14.595Z,87.76
2022-11-14T05:17:14.574Z,87.56
2022-11-14T05:18:14.578Z,87.46
2022-11-14T05:19:14.585Z,87.35
2022-11-14T05:20:14.548Z,87.21
2022-11-14T05:21:14.525Z,87.21
2022-11-14T05:22:14.513Z,87.31
2022-11-14T05:23:14.495Z,87.21
2022-11-14T05:24:14.503Z,87.10
2022-11-14T05:25:14.465Z,87.10
2022-11-14T05:26:14.456Z,87.10
2022-11-14T05:27:14.435Z,87.10
2022-11-14T05:28:14.434Z,87.10
2022-11-14T05:29:14.426Z,87.10
2022-11-14T05:30:14.409Z,87.00
2022-11-14T05:31:14.388Z,87.10
2022-11-14T05:32:16.362Z,87.10
2022-11-14T05:33:14.377Z,87.10
2022-11-14T05:34:14.384Z,87.10
2022-11-14T05:35:14.335Z,87.21
2022-11-14T05:36:14.325Z,87.21
2022-11-14T05:37:14.308Z,87.41
2022-11-14T05:38:14.296Z,87.41
2022-11-14T05:39:14.306Z,87.41
2022-11-14T05:40:14.275Z,87.41
2022-11-14T05:41:14.248Z,87.41
2022-11-14T05:42:14.247Z,87.31
2022-11-14T05:43:14.236Z,87.31
2022-11-14T05:44:14.236Z,87.21
2022-11-14T05:45:14.223Z,87.21
2022-11-14T05:46:14.187Z,87.21
2022-11-14T05:47:14.177Z,87.00
2022-11-14T05:48:14.168Z,86.90
2022-11-14T05:49:17.887Z,87.00
2022-11-14T05:50:15.158Z,86.90
2022-11-14T05:51:14.118Z,86.79
2022-11-14T05:52:14.113Z,86.79
2022-11-14T05:53:14.096Z,86.79
2022-11-14T05:54:14.086Z,86.69
2022-11-14T05:55:14.087Z,86.69
2022-11-14T05:56:14.048Z,86.69
2022-11-14T05:57:14.028Z,86.69
2022-11-14T05:58:14.035Z,86.59
2022-11-14T05:59:14.016Z,86.59
2022-11-14T06:00:14.098Z,86.59
2022-11-14T06:01:13.981Z,86.49
2022-11-14T06:02:14.031Z,86.49
2022-11-14T06:03:13.957Z,86.59
2022-11-14T06:04:13.948Z,86.59
2022-11-14T06:05:13.938Z,86.49
2022-11-14T06:06:13.918Z,86.59
2022-11-14T06:07:18.819Z,86.59
2022-11-14T06:08:14.901Z,86.49
2022-11-14T06:09:13.885Z,86.49
2022-11-14T06:10:13.889Z,86.38
2022-11-14T06:11:13.850Z,86.49
2022-11-14T06:12:13.837Z,86.59
2022-11-14T06:13:13.840Z,86.69
2022-11-14T06:14:13.819Z,86.79
2022-11-14T06:15:13.830Z,86.90
2022-11-14T06:16:13.786Z,87.10
2022-11-14T06:17:13.766Z,87.31
2022-11-14T06:18:13.760Z,87.41
2022-11-14T06:19:13.760Z,87.41
2022-11-14T06:20:13.751Z,87.37
2022-11-14T06:21:13.728Z,87.37
2022-11-14T06:22:13.708Z,87.27
2022-11-14T06:23:13.703Z,87.07
2022-11-14T06:24:13.709Z,86.96
2022-11-14T06:25:13.659Z,86.96
2022-11-14T06:26:13.649Z,86.86
2022-11-14T06:27:13.630Z,86.76
2022-11-14T06:28:13.660Z,86.76
2022-11-14T06:29:13.629Z,86.55
2022-11-14T06:30:13.598Z,86.65
2022-11-14T06:31:13.578Z,86.61
2022-11-14T06:32:13.569Z,86.71
2022-11-14T06:33:13.552Z,86.61
2022-11-14T06:34:13.561Z,86.51
2022-11-14T06:35:13.519Z,86.51
2022-11-14T06:36:13.519Z,86.41
2022-11-14T06:37:13.500Z,86.20
2022-11-14T06:38:13.491Z,85.99
2022-11-14T06:39:13.488Z,85.89
2022-11-14T06:40:13.458Z,86.10
2022-11-14T06:41:13.450Z,86.20
2022-11-14T06:42:13.439Z,86.30
2022-11-14T06:43:13.429Z,86.10
2022-11-14T06:44:13.430Z,85.95
2022-11-14T06:45:13.391Z,85.95
2022-11-14T06:46:13.389Z,85.85
2022-11-14T06:47:13.361Z,85.75
2022-11-14T06:48:13.356Z,85.64
2022-11-14T06:49:13.359Z,85.64
2022-11-14T06:50:13.320Z,85.75
2022-11-14T06:51:13.310Z,85.75
2022-11-14T06:52:13.369Z,85.54
2022-11-14T06:53:13.295Z,85.54
2022-11-14T06:54:13.290Z,85.54
2022-11-14T06:55:13.260Z,85.54
2022-11-14T06:56:13.239Z,85.54
2022-11-14T06:57:13.228Z,85.54
2022-11-14T06:58:13.210Z,85.54
2022-11-14T06:59:13.220Z,85.64
2022-11-14T07:00:13.191Z,85.75
2022-11-14T07:01:13.170Z,85.75
2022-11-14T07:02:16.437Z,85.75
2022-11-14T07:03:14.211Z,85.75
2022-11-14T07:04:13.150Z,85.64
2022-11-14T07:05:13.119Z,85.64
2022-11-14T07:06:13.099Z,85.64
2022-11-14T07:07:13.180Z,85.54
2022-11-14T07:08:16.067Z,85.54
2022-11-14T07:09:14.082Z,85.33
2022-11-14T07:10:13.050Z,85.13
2022-11-14T07:11:13.050Z,85.09
2022-11-14T07:12:13.021Z,85.19
2022-11-14T07:13:13.047Z,85.30
2022-11-14T07:14:13.021Z,85.19
2022-11-14T07:15:12.990Z,85.09
2022-11-14T07:16:12.970Z,85.02
2022-11-14T07:17:12.960Z,84.88
2022-11-14T07:18:12.941Z,84.99
2022-11-14T07:19:12.951Z,84.99
2022-11-14T07:20:12.923Z,84.99
2022-11-14T07:21:12.909Z,84.99
2022-11-14T07:22:12.891Z,84.99
2022-11-14T07:23:12.879Z,85.09
2022-11-14T07:24:12.871Z,85.19
2022-11-14T07:25:12.851Z,85.30
2022-11-14T07:26:12.831Z,85.30
2022-11-14T07:27:12.821Z,85.19
2022-11-14T07:28:12.802Z,85.19
2022-11-14T07:29:12.821Z,85.33
2022-11-14T07:30:12.783Z,85.54
2022-11-14T07:31:12.771Z,85.60
2022-11-14T07:32:12.751Z,85.60
2022-11-14T07:33:12.763Z,85.44
2022-11-14T07:34:12.739Z,85.39
2022-11-14T07:35:12.726Z,85.39
2022-11-14T07:36:12.701Z,85.50
2022-11-14T07:37:12.691Z,85.50
2022-11-14T07:38:12.672Z,85.30
2022-11-14T07:39:12.692Z,85.19
2022-11-14T07:40:12.644Z,85.19
2022-11-14T07:41:12.641Z,85.39
2022-11-14T07:42:12.623Z,85.30
2022-11-14T07:43:12.610Z,84.99
2022-11-14T07:44:12.612Z,85.09
2022-11-14T07:45:12.592Z,85.09
2022-11-14T07:46:12.563Z,84.99
2022-11-14T07:47:12.551Z,85.09
2022-11-14T07:48:12.535Z,84.88
2022-11-14T07:49:12.541Z,84.99
2022-11-14T07:50:15.194Z,84.99
2022-11-14T07:51:13.502Z,85.19
2022-11-14T07:52:12.482Z,85.30
2022-11-14T07:53:12.472Z,85.39
2022-11-14T07:54:12.472Z,85.30
2022-11-14T07:55:12.453Z,85.30
2022-11-14T07:56:12.433Z,85.50
2022-11-14T07:57:12.423Z,85.50
2022-11-14T07:58:12.402Z,85.71
2022-11-14T07:59:12.415Z,85.50
2022-11-14T08:00:12.372Z,85.50
2022-11-14T08:01:12.445Z,85.46
2022-11-14T08:02:12.352Z,85.57
2022-11-14T08:03:12.345Z,85.46
2022-11-14T08:04:12.344Z,85.57
2022-11-14T08:05:12.324Z,85.57
2022-11-14T08:06:12.305Z,85.67
2022-11-14T08:07:12.320Z,85.57
2022-11-14T08:08:12.274Z,85.67
2022-11-14T08:09:12.282Z,85.67
2022-11-14T08:10:12.256Z,85.67
2022-11-14T08:11:12.240Z,85.67
2022-11-14T08:12:12.214Z,85.87
2022-11-14T08:14:13.206Z,85.73
2022-11-14T08:15:12.185Z,85.63
2022-11-14T08:16:13.651Z,85.63
2022-11-14T08:17:12.153Z,85.52
2022-11-14T08:18:12.133Z,85.42
2022-11-14T08:19:12.156Z,85.01
2022-11-14T08:20:12.114Z,84.59
2022-11-14T08:21:12.103Z,84.45
2022-11-14T08:22:12.083Z,84.56
2022-11-14T08:23:12.086Z,84.45
2022-11-14T08:24:12.075Z,84.56
2022-11-14T08:25:12.046Z,84.77
2022-11-14T08:26:12.033Z,84.62
2022-11-14T08:27:12.024Z,84.00
2022-11-14T08:28:12.004Z,84.11
2022-11-14T08:29:12.015Z,84.31
2022-11-14T08:30:11.980Z,84.21
2022-11-14T08:31:11.967Z,84.11
2022-11-14T08:32:11.954Z,83.90
2022-11-14T08:33:11.945Z,83.76
2022-11-14T08:34:11.940Z,83.86
2022-11-14T08:35:11.918Z,83.86
2022-11-14T08:36:11.900Z,83.55
2022-11-14T08:37:11.887Z,83.76
2022-11-14T08:38:11.866Z,83.97
2022-11-14T08:39:11.876Z,83.76
2022-11-14T08:40:11.847Z,83.35
2022-11-14T08:41:11.839Z,83.55
2022-11-14T08:42:11.818Z,83.86
2022-11-14T08:43:11.828Z,83.65
2022-11-14T08:44:11.806Z,83.65
2022-11-14T08:45:11.776Z,83.76
2022-11-14T08:46:11.764Z,84.03
2022-11-14T08:47:11.756Z,83.76
2022-11-14T08:49:02.070Z,84.23
2022-11-14T08:50:02.029Z,84.03
2022-11-14T08:51:02.030Z,83.72
2022-11-14T08:52:02.006Z,83.65
2022-11-14T08:53:02.013Z,83.55
2022-11-14T08:54:01.999Z,83.65
2022-11-14T08:55:01.978Z,83.55
2022-11-14T08:56:01.952Z,83.14
2022-11-14T08:57:01.941Z,83.25
2022-11-14T08:58:01.920Z,83.25
2022-11-14T08:59:01.930Z,83.31
2022-11-14T09:00:01.913Z,83.41
2022-11-14T09:01:01.902Z,83.41
2022-11-14T09:02:01.883Z,83.51
2022-11-14T09:03:01.916Z,83.62
2022-11-14T09:04:02.065Z,83.20
2022-11-14T09:05:01.850Z,82.79
2022-11-14T09:06:01.839Z,82.90
2022-11-14T09:07:01.846Z,83.20
2022-11-14T09:08:01.791Z,83.20
2022-11-14T09:09:01.809Z,83.20
2022-11-14T09:10:01.771Z,83.31
2022-11-14T09:11:05.365Z,83.35
2022-11-14T09:12:01.767Z,83.55
2022-11-14T09:13:01.758Z,83.45
2022-11-14T09:14:01.763Z,83.55
2022-11-14T09:15:01.730Z,83.55
2022-11-14T09:16:01.693Z,83.76
2022-11-14T09:17:05.748Z,84.07
2022-11-14T09:18:01.687Z,83.86
2022-11-14T09:19:01.673Z,83.92
2022-11-14T09:20:01.643Z,84.17
2022-11-14T09:21:01.652Z,84.44
2022-11-14T09:22:01.635Z,84.44
2022-11-14T09:23:01.601Z,83.97
2022-11-14T09:24:02.077Z,84.07
2022-11-14T09:25:01.573Z,84.38
2022-11-14T09:26:01.577Z,84.58
2022-11-14T09:27:01.583Z,84.69
2022-11-14T09:28:01.546Z,84.89
2022-11-14T09:29:01.545Z,84.99
2022-11-14T09:30:01.533Z,84.89
2022-11-14T09:31:01.496Z,85.10
2022-11-14T09:32:01.485Z,84.79
2022-11-14T09:33:02.827Z,84.89
2022-11-14T09:34:01.473Z,84.99
2022-11-14T09:35:01.445Z,85.10
2022-11-14T09:36:01.427Z,84.85
2022-11-14T09:37:01.414Z,84.44
2022-11-14T09:38:01.395Z,84.07
2022-11-14T09:39:01.406Z,84.07
2022-11-14T09:40:01.388Z,84.07
2022-11-14T09:41:01.365Z,84.44
2022-11-14T09:42:01.382Z,84.54
2022-11-14T09:43:01.357Z,84.44
2022-11-14T09:44:01.346Z,84.34
2022-11-14T09:45:01.338Z,84.54
2022-11-14T09:46:01.296Z,84.64
2022-11-14T09:47:01.297Z,84.54
2022-11-14T09:48:01.280Z,84.54
2022-11-14T09:49:01.269Z,84.44
2022-11-14T09:50:01.277Z,84.54
2022-11-14T09:51:01.227Z,84.95
2022-11-14T09:52:01.215Z,84.95
2022-11-14T09:53:01.219Z,84.75
2022-11-14T09:54:01.203Z,84.75
2022-11-14T09:55:01.176Z,84.85
2022-11-14T09:56:01.168Z,84.85
2022-11-14T09:57:01.156Z,84.81
2022-11-14T09:58:01.158Z,84.81
2022-11-14T09:59:01.117Z,84.61
2022-11-14T10:00:01.108Z,84.40
2022-11-14T10:01:03.839Z,84.20
2022-11-14T10:02:02.134Z,84.20
2022-11-14T10:03:01.100Z,84.40
2022-11-14T10:04:01.057Z,84.50
2022-11-14T10:05:01.076Z,84.20
2022-11-14T10:06:01.039Z,84.30
2022-11-14T10:07:01.091Z,84.71
2022-11-14T10:08:01.037Z,84.81
2022-11-14T10:09:01.002Z,84.61
2022-11-14T10:10:00.971Z,84.40
2022-11-14T10:11:00.979Z,84.40
2022-11-14T10:12:00.951Z,84.61
2022-11-14T10:13:01.015Z,84.64
2022-11-14T10:14:00.946Z,84.64
2022-11-14T10:15:00.939Z,84.95
2022-11-14T10:16:00.888Z,85.22
2022-11-14T10:17:00.918Z,85.22
2022-11-14T10:18:00.910Z,85.12
2022-11-14T10:19:00.878Z,85.02
2022-11-14T10:20:00.855Z,85.02
2022-11-14T10:21:00.841Z,85.22
2022-11-14T10:22:00.819Z,85.02
2022-11-14T10:23:01.715Z,85.02
2022-11-14T10:24:00.820Z,85.33
2022-11-14T10:25:00.797Z,85.63
2022-11-14T10:26:00.770Z,85.53
2022-11-14T10:27:00.751Z,85.43
2022-11-14T10:28:04.992Z,85.12
2022-11-14T10:29:00.728Z,85.12
2022-11-14T10:30:00.748Z,85.02
2022-11-14T10:31:00.689Z,84.91
2022-11-14T10:32:00.709Z,84.81
2022-11-14T10:33:00.689Z,85.08
2022-11-14T10:34:00.682Z,84.98
2022-11-14T10:35:00.640Z,84.77
2022-11-14T10:36:00.641Z,84.67
2022-11-14T10:37:00.623Z,84.56
2022-11-14T10:38:00.649Z,84.53
2022-11-14T10:39:00.591Z,84.32
2022-11-14T10:40:00.581Z,84.01
2022-11-14T10:41:00.574Z,84.32
2022-11-14T10:42:06.012Z,84.53
2022-11-14T10:43:01.574Z,84.22
2022-11-14T10:44:00.541Z,84.01
2022-11-14T10:45:00.513Z,84.12
2022-11-14T10:46:00.503Z,84.42
2022-11-14T10:47:00.486Z,84.32
2022-11-14T10:48:00.491Z,84.12
2022-11-14T10:49:00.659Z,84.01
2022-11-14T10:50:00.452Z,84.12
2022-11-14T10:51:00.433Z,84.22
2022-11-14T10:52:00.445Z,84.08
2022-11-14T10:53:00.442Z,83.56
2022-11-14T10:54:00.408Z,83.77
2022-11-14T10:55:00.398Z,83.87
2022-11-14T10:56:05.049Z,83.77
2022-11-14T10:57:01.364Z,83.67
2022-11-14T10:58:00.382Z,83.77
2022-11-14T10:59:00.327Z,83.67
2022-11-14T11:00:00.326Z,83.63
2022-11-14T11:01:00.372Z,83.67
2022-11-14T11:02:00.291Z,83.83
2022-11-14T11:03:00.307Z,83.56
2022-11-14T11:04:00.294Z,83.67
2022-11-14T11:05:00.245Z,83.98
2022-11-14T11:06:00.256Z,84.25
2022-11-14T11:07:00.257Z,83.83
2022-11-14T11:08:15.019Z,83.73
2022-11-14T11:09:01.254Z,83.73
2022-11-14T11:10:00.204Z,83.98
2022-11-14T11:11:00.187Z,84.39
2022-11-14T11:12:00.226Z,84.08
2022-11-14T11:13:00.207Z,83.77
2022-11-14T11:14:00.124Z,83.87
2022-11-14T11:15:00.136Z,84.18
2022-11-14T11:16:00.108Z,84.18
2022-11-14T11:17:00.116Z,84.49
2022-11-14T11:18:00.103Z,84.39
2022-11-14T11:19:00.068Z,84.28
2022-11-14T11:20:03.876Z,84.08
2022-11-14T11:21:01.079Z,84.28
2022-11-14T11:22:00.037Z,84.18
2022-11-14T11:23:03.189Z,84.39
2022-11-14T11:24:00.019Z,84.39
2022-11-14T11:24:59.986Z,84.28
2022-11-14T11:26:00.002Z,84.14
2022-11-14T11:26:59.948Z,84.04
2022-11-14T11:27:59.947Z,83.53
2022-11-14T11:28:59.960Z,83.53
2022-11-14T11:29:59.917Z,83.39
2022-11-14T11:30:59.897Z,83.28
2022-11-14T11:31:59.886Z,83.04
2022-11-14T11:32:59.867Z,81.91
2022-11-14T11:33:59.888Z,81.29
2022-11-14T11:34:59.847Z,81.36
2022-11-14T11:35:59.844Z,81.57
2022-11-14T11:36:59.819Z,81.77
2022-11-14T11:37:59.807Z,81.46
2022-11-14T11:38:59.817Z,81.20
2022-11-14T11:39:59.801Z,81.71
2022-11-14T11:40:59.760Z,82.22
2022-11-14T11:42:09.318Z,82.32
2022-11-14T11:44:00.894Z,82.22
2022-11-14T11:44:59.722Z,82.15
2022-11-14T11:45:59.707Z,82.46
2022-11-14T11:46:59.688Z,82.67
2022-11-14T11:47:59.701Z,82.53
2022-11-14T11:48:59.670Z,82.42
2022-11-14T11:49:59.659Z,82.01
2022-11-14T11:50:59.630Z,81.81
2022-11-14T11:51:59.628Z,81.81
2022-11-14T11:52:59.626Z,82.22
2022-11-14T11:53:59.599Z,82.42
2022-11-14T11:54:59.600Z,82.63
2022-11-14T11:55:59.571Z,82.53
2022-11-14T11:56:59.580Z,82.26
2022-11-14T11:57:59.589Z,82.36
2022-11-14T11:58:59.538Z,82.26
2022-11-14T11:59:59.520Z,82.32
2022-11-14T12:00:59.519Z,82.01
2022-11-14T12:01:59.519Z,82.01
2022-11-14T12:02:59.606Z,81.60
2022-11-14T12:03:59.502Z,81.46
2022-11-14T12:04:59.450Z,81.20
2022-11-14T12:05:59.441Z,81.50
2022-11-14T12:06:59.472Z,81.29
2022-11-14T12:07:59.440Z,81.36
2022-11-14T12:08:59.422Z,81.50
2022-11-14T12:10:14.660Z,81.57
2022-11-14T12:11:00.371Z,81.57
2022-11-14T12:11:59.361Z,81.40
2022-11-14T12:12:59.382Z,81.81
2022-11-14T12:13:59.345Z,81.91
2022-11-14T12:14:59.324Z,82.12
2022-11-14T12:15:59.328Z,82.22
2022-11-14T12:16:59.294Z,82.12
2022-11-14T12:17:59.293Z,82.39
2022-11-14T12:18:59.286Z,82.28
2022-11-14T12:19:59.271Z,81.98
2022-11-14T12:20:59.243Z,81.98
2022-11-14T12:21:59.243Z,81.91
2022-11-14T12:22:59.213Z,81.91
2022-11-14T12:23:59.239Z,82.01
2022-11-14T12:24:59.192Z,82.63
2022-11-14T12:25:59.183Z,82.63
2022-11-14T12:26:59.166Z,82.63
2022-11-14T12:27:59.205Z,83.04
2022-11-14T12:28:59.184Z,82.83
2022-11-14T12:29:59.127Z,82.69
2022-11-14T12:30:59.115Z,82.49
2022-11-14T12:31:59.123Z,82.08
2022-11-14T12:32:59.084Z,81.98
2022-11-14T12:33:59.108Z,81.98
2022-11-14T12:34:59.091Z,81.52
2022-11-14T12:35:59.067Z,81.12
2022-11-14T12:36:59.047Z,81.67
2022-11-14T12:37:59.049Z,81.52
2022-11-14T12:38:58.995Z,81.63
2022-11-14T12:39:59.017Z,81.63
2022-11-14T12:40:58.995Z,81.32
2022-11-14T12:41:58.978Z,81.43
2022-11-14T12:42:58.962Z,81.49
2022-11-14T12:43:58.977Z,81.38
2022-11-14T12:44:58.938Z,81.18
2022-11-14T12:45:58.915Z,81.08
2022-11-14T12:46:58.900Z,81.18
2022-11-14T12:47:58.906Z,80.81
2022-11-14T12:48:58.905Z,80.71
2022-11-14T12:49:58.869Z,80.71
2022-11-14T12:50:58.856Z,81.12
2022-11-14T12:51:58.836Z,81.43
2022-11-14T12:52:58.827Z,81.12
2022-11-14T12:53:58.827Z,81.01
2022-11-14T12:54:58.820Z,81.22